| time (UTC) | temp F | wind direction | speed knots | gust knots | rain 1hr in | rain 24hr in | rain mn in | humidity % | barometer mb |
| 20260509135451 | 60 | 140 | 3.5 | 5.2 | 0.00 | 0.00 | 0.00 | 57 | 1022.8 |
| 20260509134948 | 60 | 141 | 1.7 | 2.6 | 0.00 | 0.00 | 0.00 | 59 | 1022.6 |
| 20260509134445 | 60 | 177 | 1.7 | 1.7 | 0.00 | 0.00 | 0.00 | 61 | 1022.5 |
| 20260509133937 | 60 | 119 | 2.6 | 2.6 | 0.00 | 0.00 | 0.00 | 60 | 1022.3 |
| 20260509133433 | 60 | 18 | 0.9 | 1.7 | 0.00 | 0.00 | 0.00 | 62 | 1022.0 |
| 20260509132932 | 60 | 143 | 0.9 | 0.9 | 0.00 | 0.00 | 0.00 | 62 | 1022.0 |
| 20260509132429 | 60 | 98 | 1.7 | 1.7 | 0.00 | 0.00 | 0.00 | 64 | 1021.8 |
| 20260509131926 | 59 | 163 | 1.7 | 1.7 | 0.00 | 0.00 | 0.00 | 62 | 1021.8 |
| 20260509131424 | 59 | 144 | 2.6 | 2.6 | 0.00 | 0.00 | 0.00 | 63 | 1022.0 |
| 20260509130920 | 59 | 137 | 0.9 | 0.9 | 0.00 | 0.00 | 0.00 | 65 | 1021.7 |
| 20260509130415 | 59 | 96 | 0.9 | 0.9 | 0.00 | 0.00 | 0.00 | 63 | 1021.5 |
| 20260509125913 | 59 | 134 | 0.9 | 1.7 | 0.00 | 0.00 | 0.00 | 63 | 1021.7 |
| 20260509125409 | 59 | 162 | 0.9 | 1.7 | 0.00 | 0.00 | 0.00 | 63 | 1021.5 |
| 20260509124905 | 58 | 136 | 0.9 | 0.9 | 0.00 | 0.00 | 0.00 | 63 | 1021.8 |
| 20260509124403 | 58 | 111 | 0.9 | 0.9 | 0.00 | 0.00 | 0.00 | 64 | 1021.4 |
| 20260509123900 | 58 | 134 | 0.9 | 0.9 | 0.00 | 0.00 | 0.00 | 63 | 1021.4 |
| 20260509123357 | 58 | 140 | 0.9 | 1.7 | 0.00 | 0.00 | 0.00 | 62 | 1021.3 |
| 20260509122853 | 58 | 127 | 0.9 | 1.7 | 0.00 | 0.00 | 0.00 | 63 | 1021.0 |
| 20260509122350 | 58 | 118 | 0.9 | 0.9 | 0.00 | 0.00 | 0.00 | 64 | 1021.0 |
| 20260509121847 | 58 | 115 | 0.0 | 0.0 | 0.00 | 0.00 | 0.00 | 63 | 1020.7 |
| 20260509121344 | 58 | 114 | 0.9 | 1.7 | 0.00 | 0.00 | 0.00 | 64 | 1020.6 |
| 20260509120842 | 58 | 135 | 1.7 | 1.7 | 0.00 | 0.00 | 0.00 | 65 | 1020.4 |
| 20260509120339 | 57 | 149 | 1.7 | 1.7 | 0.00 | 0.00 | 0.00 | 64 | 1020.2 |
| 20260509115837 | 57 | 117 | 0.9 | 0.9 | 0.00 | 0.00 | 0.00 | 64 | 1020.4 |
| 20260509115334 | 57 | 140 | 2.6 | 2.6 | 0.00 | 0.00 | 0.00 | 65 | 1020.1 |
| 20260509114832 | 57 | 120 | 0.0 | 0.9 | 0.00 | 0.00 | 0.00 | 67 | 1020.0 |
| 20260509114331 | 57 | 112 | 0.9 | 0.9 | 0.00 | 0.00 | 0.00 | 66 | 1019.9 |
| 20260509113829 | 57 | 104 | 0.9 | 0.9 | 0.00 | 0.00 | 0.00 | 66 | 1019.9 |
| 20260509113326 | 57 | 115 | 0.9 | 0.9 | 0.00 | 0.00 | 0.00 | 67 | 1019.8 |
| 20260509112823 | 57 | 127 | 0.9 | 0.9 | 0.00 | 0.00 | 0.00 | 67 | 1019.8 |
| 20260509112320 | 57 | 132 | 1.7 | 1.7 | 0.00 | 0.00 | 0.00 | 66 | 1019.6 |
| 20260509111817 | 57 | 100 | 0.0 | 0.9 | 0.00 | 0.00 | 0.00 | 66 | 1019.7 |
| 20260509111314 | 56 | 108 | 0.9 | 0.9 | 0.00 | 0.00 | 0.00 | 64 | 1019.3 |
| 20260509110812 | 56 | 120 | 0.9 | 0.9 | 0.00 | 0.00 | 0.00 | 66 | 1019.1 |
| 20260509110307 | 56 | 107 | 0.9 | 0.9 | 0.00 | 0.00 | 0.00 | 66 | 1019.1 |
| 20260509105806 | 56 | 110 | 0.0 | 0.0 | 0.00 | 0.00 | 0.00 | 67 | 1019.2 |
| 20260509105306 | 56 | 139 | 0.9 | 0.9 | 0.00 | 0.00 | 0.00 | 66 | 1019.0 |
| 20260509104800 | 56 | 130 | 0.9 | 0.9 | 0.00 | 0.00 | 0.00 | 66 | 1018.9 |
| 20260509104257 | 56 | 89 | 0.9 | 0.9 | 0.00 | 0.00 | 0.00 | 66 | 1019.1 |
| 20260509103755 | 56 | 107 | 0.0 | 0.9 | 0.00 | 0.00 | 0.00 | 68 | 1018.8 |
| 20260509103252 | 56 | 115 | 0.9 | 0.9 | 0.00 | 0.00 | 0.00 | 67 | 1018.7 |
| 20260509102750 | 56 | 113 | 0.9 | 1.7 | 0.00 | 0.00 | 0.00 | 65 | 1018.5 |
| 20260509102247 | 56 | 113 | 0.9 | 0.9 | 0.00 | 0.00 | 0.00 | 66 | 1018.5 |
| 20260509101743 | 57 | 96 | 0.0 | 0.0 | 0.00 | 0.00 | 0.00 | 65 | 1018.6 |
| 20260509101239 | 56 | 117 | 0.9 | 1.7 | 0.00 | 0.00 | 0.00 | 64 | 1017.9 |
| 20260509100737 | 57 | 108 | 0.9 | 0.9 | 0.00 | 0.00 | 0.00 | 65 | 1017.8 |
| 20260509100234 | 57 | 82 | 0.0 | 0.9 | 0.00 | 0.00 | 0.00 | 66 | 1017.7 |
| 20260509095730 | 56 | 123 | 0.9 | 0.9 | 0.00 | 0.00 | 0.00 | 66 | 1017.4 |
| 20260509095228 | 56 | 142 | 1.7 | 1.7 | 0.00 | 0.00 | 0.00 | 67 | 1017.2 |
| 20260509094725 | 56 | 112 | 1.7 | 1.7 | 0.00 | 0.00 | 0.00 | 69 | 1016.7 |
| 20260509094222 | 57 | 136 | 0.9 | 0.9 | 0.00 | 0.00 | 0.00 | 68 | 1016.7 |
| 20260509093720 | 56 | 120 | 0.9 | 0.9 | 0.00 | 0.00 | 0.00 | 69 | 1016.8 |
| 20260509093217 | 56 | 103 | 0.9 | 1.7 | 0.00 | 0.00 | 0.00 | 69 | 1017.0 |
| 20260509092715 | 56 | 136 | 1.7 | 1.7 | 0.00 | 0.00 | 0.00 | 73 | 1016.7 |
| 20260509092213 | 55 | 123 | 1.7 | 1.7 | 0.00 | 0.00 | 0.00 | 76 | 1016.9 |
| 20260509091711 | 55 | 123 | 1.7 | 1.7 | 0.00 | 0.00 | 0.00 | 77 | 1016.6 |
| 20260509091206 | 55 | 100 | 0.0 | 0.0 | 0.00 | 0.00 | 0.00 | 81 | 1016.2 |
| 20260509090704 | 56 | 123 | 1.7 | 1.7 | 0.00 | 0.00 | 0.00 | 79 | 1016.4 |
| 20260509090201 | 56 | 86 | 0.0 | 0.9 | 0.00 | 0.00 | 0.00 | 78 | 1016.4 |
| 20260509085659 | 56 | 99 | 0.0 | 0.0 | 0.00 | 0.00 | 0.00 | 77 | 1016.5 |
| 20260509085155 | 56 | 115 | 0.9 | 1.7 | 0.00 | 0.00 | 0.00 | 75 | 1015.9 |
| 20260509084652 | 56 | 129 | 0.9 | 0.9 | 0.00 | 0.00 | 0.00 | 77 | 1015.9 |
| 20260509084148 | 55 | 130 | 0.9 | 0.9 | 0.00 | 0.00 | 0.00 | 79 | 1015.3 |
| 20260509083646 | 55 | 116 | 0.0 | 0.0 | 0.00 | 0.00 | 0.00 | 80 | 1015.2 |
| 20260509083137 | 55 | 103 | 0.0 | 0.0 | 0.00 | 0.00 | 0.00 | 80 | 1015.6 |
| 20260509082634 | 55 | 146 | 0.9 | 0.9 | 0.00 | 0.00 | 0.00 | 81 | 1015.4 |
| 20260509082131 | 55 | 110 | 0.0 | 0.0 | 0.00 | 0.00 | 0.00 | 81 | 1014.8 |
| 20260509081628 | 55 | 96 | 0.0 | 0.0 | 0.00 | 0.00 | 0.00 | 83 | 1015.1 |
| 20260509081125 | 55 | 116 | 0.0 | 0.9 | 0.00 | 0.00 | 0.00 | 82 | 1014.9 |
| 20260509080623 | 55 | 104 | 0.0 | 0.0 | 0.00 | 0.00 | 0.00 | 82 | 1014.8 |
| 20260509080121 | 55 | 132 | 1.7 | 1.7 | 0.00 | 0.00 | 0.00 | 82 | 1014.4 |
| 20260509075619 | 55 | 114 | 1.7 | 1.7 | 0.00 | 0.00 | 0.00 | 82 | 1014.3 |
| 20260509075116 | 55 | 122 | 0.9 | 0.9 | 0.00 | 0.00 | 0.00 | 82 | 1014.0 |
| 20260509074613 | 55 | 140 | 1.7 | 1.7 | 0.00 | 0.00 | 0.00 | 81 | 1014.6 |
| 20260509074109 | 55 | 117 | 0.9 | 0.9 | 0.00 | 0.00 | 0.00 | 82 | 1014.6 |
| 20260509073606 | 55 | 101 | 0.9 | 0.9 | 0.00 | 0.00 | 0.00 | 81 | 1014.5 |
| 20260509073102 | 55 | 143 | 0.9 | 1.7 | 0.00 | 0.00 | 0.00 | 81 | 1014.4 |
| 20260509072559 | 55 | 125 | 0.9 | 0.9 | 0.00 | 0.00 | 0.00 | 81 | 1014.4 |
| 20260509072056 | 55 | 109 | 0.9 | 0.9 | 0.00 | 0.00 | 0.00 | 80 | 1014.6 |
| 20260509071553 | 55 | 129 | 0.9 | 0.9 | 0.00 | 0.00 | 0.00 | 79 | 1014.7 |
| 20260509071050 | 55 | 117 | 0.0 | 0.9 | 0.00 | 0.00 | 0.00 | 79 | 1014.6 |
| 20260509070547 | 55 | 152 | 1.7 | 1.7 | 0.00 | 0.00 | 0.00 | 79 | 1014.4 |
| 20260509070038 | 55 | 152 | 1.7 | 1.7 | 0.00 | 0.00 | 0.00 | 79 | 1014.5 |
| 20260509065533 | 55 | 129 | 1.7 | 1.7 | 0.00 | 0.00 | 0.00 | 80 | 1014.7 |
| 20260509065030 | 55 | 106 | 0.0 | 0.0 | 0.00 | 0.00 | 0.00 | 80 | 1014.5 |
| 20260509064527 | 55 | 116 | 0.9 | 0.9 | 0.00 | 0.00 | 0.00 | 80 | 1014.4 |
| 20260509064025 | 55 | 109 | 0.0 | 0.0 | 0.00 | 0.00 | 0.00 | 80 | 1014.2 |
| 20260509063520 | 55 | 146 | 0.9 | 1.7 | 0.00 | 0.00 | 0.00 | 80 | 1014.2 |
| 20260509063018 | 55 | 133 | 1.7 | 1.7 | 0.00 | 0.00 | 0.00 | 79 | 1014.1 |
| 20260509062515 | 55 | 151 | 1.7 | 1.7 | 0.00 | 0.00 | 0.00 | 80 | 1014.0 |
| 20260509062013 | 55 | 123 | 0.9 | 0.9 | 0.00 | 0.00 | 0.00 | 80 | 1014.3 |
| 20260509061509 | 55 | 122 | 1.7 | 1.7 | 0.00 | 0.00 | 0.00 | 80 | 1013.9 |
| 20260509061007 | 55 | 142 | 0.9 | 1.7 | 0.00 | 0.00 | 0.00 | 81 | 1014.3 |
| 20260509060504 | 55 | 121 | 0.9 | 0.9 | 0.00 | 0.00 | 0.00 | 82 | 1014.3 |
| 20260509055959 | 55 | 142 | 1.7 | 1.7 | 0.00 | 0.00 | 0.00 | 82 | 1014.2 |
| 20260509055455 | 55 | 117 | 0.9 | 1.7 | 0.00 | 0.00 | 0.00 | 82 | 1014.4 |
| 20260509054951 | 54 | 147 | 0.9 | 0.9 | 0.00 | 0.00 | 0.00 | 84 | 1014.5 |
| 20260509054448 | 54 | 138 | 0.9 | 0.9 | 0.00 | 0.00 | 0.00 | 84 | 1014.6 |
| 20260509053946 | 54 | 111 | 0.0 | 0.0 | 0.00 | 0.00 | 0.00 | 84 | 1014.8 |
| 20260509053444 | 53 | 105 | 0.0 | 0.0 | 0.00 | 0.00 | 0.00 | 85 | 1014.9 |
| 20260509052941 | 53 | 104 | 0.0 | 0.0 | 0.00 | 0.00 | 0.00 | 86 | 1015.1 |
| 20260509052439 | 53 | 109 | 0.0 | 0.0 | 0.00 | 0.00 | 0.00 | 85 | 1014.8 |
| 20260509051936 | 53 | 109 | 0.0 | 0.0 | 0.00 | 0.00 | 0.00 | 85 | 1015.1 |
| 20260509051434 | 53 | 109 | 0.0 | 0.0 | 0.00 | 0.00 | 0.00 | 85 | 1015.0 |
| 20260509050931 | 53 | 109 | 0.0 | 0.0 | 0.00 | 0.00 | 0.00 | 84 | 1014.9 |
| 20260509050427 | 54 | 107 | 0.0 | 0.0 | 0.00 | 0.00 | 0.00 | 83 | 1014.7 |
| 20260509045924 | 54 | 109 | 0.9 | 0.9 | 0.00 | 0.00 | 0.00 | 83 | 1014.7 |
| 20260509045421 | 54 | 119 | 0.0 | 0.0 | 0.00 | 0.00 | 0.00 | 83 | 1014.7 |
| 20260509044918 | 54 | 110 | 0.0 | 0.0 | 0.00 | 0.00 | 0.00 | 83 | 1014.7 |
| 20260509044416 | 54 | 110 | 0.0 | 0.0 | 0.00 | 0.00 | 0.00 | 83 | 1014.8 |
| 20260509043913 | 54 | 111 | 0.0 | 0.0 | 0.00 | 0.00 | 0.00 | 84 | 1014.5 |
| 20260509043408 | 55 | 132 | 0.9 | 0.9 | 0.00 | 0.00 | 0.00 | 83 | 1014.4 |
| 20260509042904 | 55 | 154 | 0.9 | 1.7 | 0.00 | 0.00 | 0.00 | 82 | 1014.6 |
| 20260509042402 | 55 | 121 | 0.9 | 0.9 | 0.00 | 0.00 | 0.00 | 82 | 1014.6 |
| 20260509041858 | 55 | 108 | 0.0 | 0.0 | 0.00 | 0.00 | 0.00 | 82 | 1014.6 |
| 20260509041355 | 56 | 114 | 0.0 | 0.0 | 0.00 | 0.00 | 0.00 | 81 | 1014.8 |
| 20260509040853 | 56 | 105 | 0.0 | 0.0 | 0.00 | 0.00 | 0.00 | 80 | 1014.9 |
| 20260509040350 | 56 | 107 | 0.0 | 0.0 | 0.00 | 0.00 | 0.00 | 78 | 1014.8 |
| 20260509035841 | 56 | 110 | 0.0 | 0.0 | 0.00 | 0.00 | 0.00 | 76 | 1014.9 |
| 20260509035338 | 56 | 110 | 0.0 | 0.0 | 0.00 | 0.00 | 0.00 | 76 | 1015.3 |
| 20260509034834 | 56 | 104 | 0.0 | 0.0 | 0.00 | 0.00 | 0.00 | 79 | 1015.1 |
| 20260509034333 | 56 | 98 | 0.0 | 0.0 | 0.00 | 0.00 | 0.00 | 83 | 1015.1 |
| 20260509033829 | 56 | 106 | 0.0 | 0.0 | 0.00 | 0.00 | 0.00 | 80 | 1015.0 |
| 20260509033326 | 56 | 104 | 0.0 | 0.0 | 0.00 | 0.00 | 0.00 | 81 | 1014.8 |
| 20260509032823 | 55 | 102 | 0.0 | 0.0 | 0.00 | 0.00 | 0.00 | 83 | 1014.8 |
| 20260509032320 | 55 | 102 | 0.0 | 0.0 | 0.00 | 0.00 | 0.00 | 84 | 1014.5 |
| 20260509031818 | 55 | 97 | 0.0 | 0.0 | 0.00 | 0.00 | 0.00 | 84 | 1014.3 |
| 20260509031315 | 55 | 98 | 0.0 | 0.0 | 0.00 | 0.00 | 0.00 | 85 | 1014.6 |
| 20260509030813 | 55 | 116 | 0.9 | 0.9 | 0.00 | 0.00 | 0.00 | 86 | 1014.4 |
| 20260509030310 | 54 | 150 | 1.7 | 1.7 | 0.00 | 0.00 | 0.00 | 86 | 1014.4 |
| 20260509025807 | 54 | 148 | 0.0 | 0.9 | 0.00 | 0.04 | 0.04 | 88 | 1014.5 |
| 20260509025306 | 54 | 117 | 0.9 | 0.9 | 0.00 | 0.04 | 0.04 | 89 | 1014.6 |
| 20260509024758 | 53 | 120 | 0.0 | 0.0 | 0.00 | 0.04 | 0.04 | 91 | 1014.4 |
| 20260509024255 | 53 | 114 | 0.0 | 0.9 | 0.00 | 0.04 | 0.04 | 92 | 1014.8 |
| 20260509023751 | 52 | 107 | 0.0 | 0.0 | 0.00 | 0.04 | 0.04 | 94 | 1014.8 |
| 20260509023249 | 51 | 100 | 0.0 | 0.0 | 0.00 | 0.04 | 0.04 | 97 | 1014.3 |
| 20260509022745 | 51 | 87 | 0.0 | 0.0 | 0.00 | 0.04 | 0.04 | 98 | 1014.3 |
| 20260509022243 | 51 | 82 | 0.0 | 0.0 | 0.00 | 0.04 | 0.04 | 97 | 1014.1 |
| 20260509021739 | 51 | 86 | 0.0 | 0.0 | 0.00 | 0.04 | 0.04 | 97 | 1014.2 |
| 20260509021237 | 51 | 80 | 0.0 | 0.0 | 0.00 | 0.04 | 0.04 | 97 | 1013.7 |
| 20260509020734 | 51 | 80 | 0.0 | 0.0 | 0.00 | 0.04 | 0.04 | 97 | 1013.9 |
| 20260509020232 | 51 | 81 | 0.0 | 0.0 | 0.00 | 0.04 | 0.04 | 98 | 1014.1 |
| 20260509015730 | 51 | 85 | 0.0 | 0.0 | 0.00 | 0.04 | 0.04 | 97 | 1013.9 |
| 20260509015228 | 51 | 84 | 0.0 | 0.0 | 0.00 | 0.04 | 0.04 | 97 | 1014.3 |
| 20260509014724 | 51 | 77 | 0.0 | 0.0 | 0.00 | 0.04 | 0.04 | 98 | 1014.1 |
| 20260509014221 | 51 | 86 | 0.0 | 0.0 | 0.00 | 0.04 | 0.04 | 97 | 1013.9 |
| 20260509013718 | 51 | 85 | 0.0 | 0.0 | 0.00 | 0.04 | 0.04 | 97 | 1014.2 |
| 20260509013213 | 51 | 79 | 0.0 | 0.0 | 0.00 | 0.04 | 0.04 | 97 | 1014.0 |
| 20260509012710 | 51 | 83 | 0.0 | 0.0 | 0.00 | 0.04 | 0.04 | 97 | 1014.0 |
| 20260509012207 | 51 | 80 | 0.0 | 0.0 | 0.00 | 0.04 | 0.04 | 97 | 1013.7 |
| 20260509011704 | 51 | 85 | 0.0 | 0.0 | 0.00 | 0.04 | 0.04 | 97 | 1013.8 |
| 20260509011202 | 52 | 84 | 0.0 | 0.0 | 0.00 | 0.04 | 0.04 | 97 | 1013.9 |
| 20260509010700 | 52 | 59 | 0.9 | 0.9 | 0.00 | 0.04 | 0.04 | 97 | 1014.2 |
| 20260509010155 | 52 | 84 | 0.0 | 0.0 | 0.00 | 0.04 | 0.04 | 97 | 1013.3 |
| 20260509005653 | 52 | 82 | 0.0 | 0.0 | 0.00 | 0.04 | 0.04 | 97 | 1013.6 |
| 20260509005150 | 52 | 82 | 0.0 | 0.9 | 0.00 | 0.04 | 0.04 | 97 | 1013.5 |
| 20260509004645 | 52 | 82 | 0.0 | 0.0 | 0.00 | 0.04 | 0.04 | 96 | 1013.7 |
| 20260509004142 | 52 | 82 | 0.0 | 0.0 | 0.00 | 0.04 | 0.04 | 96 | 1013.4 |
| 20260509003641 | 52 | 79 | 0.0 | 0.0 | 0.00 | 0.04 | 0.04 | 96 | 1013.1 |
| 20260509003137 | 52 | 79 | 0.0 | 0.0 | 0.00 | 0.04 | 0.04 | 96 | 1013.1 |
| 20260509002629 | 53 | 78 | 0.0 | 0.0 | 0.00 | 0.04 | 0.04 | 96 | 1013.1 |
| 20260509002126 | 53 | 77 | 0.0 | 0.0 | 0.00 | 0.04 | 0.04 | 96 | 1013.4 |
| 20260509001624 | 53 | 70 | 0.0 | 0.0 | 0.00 | 0.04 | 0.04 | 96 | 1012.9 |
| 20260509001119 | 53 | 70 | 0.0 | 0.0 | 0.00 | 0.04 | 0.04 | 95 | 1012.9 |
| 20260509000618 | 53 | 70 | 0.0 | 0.0 | 0.00 | 0.04 | 0.04 | 96 | 1013.2 |
| 20260509000114 | 53 | 69 | 0.0 | 0.0 | 0.00 | 0.04 | 0.04 | 96 | 1013.2 |
| 20260508235612 | 53 | 35 | 0.9 | 0.9 | 0.00 | 0.04 | 0.04 | 95 | 1013.3 |
| 20260508235108 | 53 | 77 | 0.0 | 0.0 | 0.00 | 0.04 | 0.04 | 95 | 1013.2 |
| 20260508234605 | 54 | 74 | 0.0 | 0.0 | 0.00 | 0.04 | 0.04 | 95 | 1012.9 |
| 20260508234102 | 54 | 61 | 0.0 | 0.9 | 0.00 | 0.04 | 0.04 | 95 | 1013.1 |
| 20260508233602 | 54 | 90 | 0.0 | 0.0 | 0.00 | 0.04 | 0.04 | 95 | 1012.4 |
| 20260508233059 | 54 | 77 | 0.0 | 0.0 | 0.00 | 0.04 | 0.04 | 94 | 1012.6 |
| 20260508232555 | 54 | 77 | 0.0 | 0.0 | 0.00 | 0.04 | 0.04 | 94 | 1012.7 |
| 20260508232052 | 55 | 88 | 0.0 | 0.0 | 0.00 | 0.04 | 0.04 | 93 | 1012.1 |
| 20260508231550 | 55 | 91 | 0.0 | 0.0 | 0.00 | 0.04 | 0.04 | 93 | 1012.2 |
| 20260508231047 | 55 | 89 | 0.0 | 0.0 | 0.00 | 0.04 | 0.04 | 94 | 1012.6 |
| 20260508230543 | 55 | 92 | 0.0 | 0.0 | 0.00 | 0.04 | 0.04 | 94 | 1012.5 |
| 20260508230040 | 55 | 91 | 0.9 | 0.9 | 0.00 | 0.04 | 0.04 | 92 | 1012.9 |
| 20260508225537 | 56 | 65 | 0.0 | 0.0 | 0.00 | 0.04 | 0.04 | 92 | 1012.9 |
| 20260508225034 | 56 | 36 | 0.9 | 0.9 | 0.00 | 0.04 | 0.04 | 91 | 1013.4 |
| 20260508224532 | 57 | 88 | 0.9 | 0.9 | 0.00 | 0.04 | 0.04 | 90 | 1013.2 |
| 20260508224029 | 57 | 93 | 0.0 | 0.0 | 0.00 | 0.04 | 0.04 | 89 | 1013.6 |
| 20260508223527 | 57 | 95 | 0.0 | 0.0 | 0.00 | 0.04 | 0.04 | 88 | 1013.6 |
| 20260508223024 | 58 | 91 | 0.9 | 0.9 | 0.00 | 0.04 | 0.04 | 86 | 1013.8 |
| 20260508222521 | 59 | 94 | 0.0 | 0.0 | 0.00 | 0.04 | 0.04 | 84 | 1013.8 |
| 20260508222018 | 60 | 60 | 0.9 | 0.9 | 0.00 | 0.04 | 0.04 | 80 | 1013.8 |
| 20260508221514 | 61 | 101 | 0.0 | 0.0 | 0.00 | 0.04 | 0.04 | 76 | 1013.8 |
| 20260508221010 | 61 | 111 | 0.0 | 0.0 | 0.00 | 0.04 | 0.04 | 73 | 1013.9 |
| 20260508220507 | 61 | 120 | 0.9 | 0.9 | 0.00 | 0.04 | 0.04 | 72 | 1013.7 |
| 20260508220003 | 62 | 110 | 0.0 | 0.0 | 0.00 | 0.04 | 0.04 | 71 | 1013.5 |
| 20260508215500 | 62 | 89 | 0.0 | 0.0 | 0.00 | 0.04 | 0.04 | 73 | 1013.5 |
| 20260508214956 | 62 | 100 | 0.0 | 0.0 | 0.00 | 0.04 | 0.04 | 71 | 1013.5 |
| 20260508214454 | 62 | 107 | 0.0 | 0.0 | 0.00 | 0.04 | 0.04 | 69 | 1013.6 |
| 20260508213950 | 62 | 110 | 0.9 | 2.6 | 0.00 | 0.04 | 0.04 | 70 | 1013.7 |
| 20260508213448 | 62 | 102 | 0.9 | 0.9 | 0.00 | 0.04 | 0.04 | 69 | 1014.0 |
| 20260508212943 | 62 | 96 | 0.9 | 0.9 | 0.00 | 0.04 | 0.04 | 68 | 1013.6 |
| 20260508212440 | 63 | 107 | 0.0 | 0.9 | 0.00 | 0.04 | 0.04 | 68 | 1013.9 |
| 20260508211936 | 63 | 172 | 0.9 | 0.9 | 0.00 | 0.04 | 0.04 | 67 | 1013.6 |
| 20260508211431 | 0 | 35 | 0.9 | 0.9 | 0.00 | 0.04 | 0.04 | 1013.8 | |
| 20260508210929 | 0 | 35 | 0.9 | 0.9 | 0.00 | 0.04 | 0.04 | 1013.6 | |
| 20260508210426 | 0 | 35 | 0.9 | 0.9 | 0.00 | 0.04 | 0.04 | 1013.5 | |
| 20260508205921 | 0 | 86 | 0.9 | 0.9 | 0.00 | 0.04 | 0.04 | 1013.4 | |
| 20260508205418 | 0 | 118 | 0.9 | 0.9 | 0.00 | 0.04 | 0.04 | 1013.4 | |
| 20260508204914 | 0 | 119 | 0.9 | 0.9 | 0.00 | 0.04 | 0.04 | 1013.0 | |
| 20260508204412 | 0 | 84 | 0.0 | 0.9 | 0.00 | 0.04 | 0.04 | 1013.3 | |
| 20260508203907 | 0 | 53 | 0.9 | 1.7 | 0.00 | 0.04 | 0.04 | 1013.4 | |
| 20260508203404 | 64 | 92 | 0.9 | 0.9 | 0.00 | 0.04 | 0.04 | 66 | 1013.0 |
| 20260508202859 | 65 | 111 | 0.9 | 0.9 | 0.00 | 0.04 | 0.04 | 65 | 1013.0 |
| 20260508202357 | 65 | 95 | 0.9 | 0.9 | 0.00 | 0.04 | 0.04 | 64 | 1013.2 |
| 20260508201854 | 65 | 184 | 0.9 | 2.6 | 0.00 | 0.04 | 0.04 | 64 | 1013.0 |
| 20260508201351 | 65 | 118 | 1.7 | 1.7 | 0.00 | 0.04 | 0.04 | 63 | 1012.8 |
| 20260508200847 | 65 | 169 | 0.9 | 0.9 | 0.00 | 0.04 | 0.04 | 63 | 1012.9 |
| 20260508200344 | 65 | 111 | 2.6 | 4.3 | 0.00 | 0.04 | 0.04 | 63 | 1013.0 |
| 20260508195839 | 65 | 138 | 0.9 | 1.7 | 0.00 | 0.04 | 0.04 | 62 | 1013.1 |
| 20260508195337 | 66 | 120 | 1.7 | 1.7 | 0.00 | 0.04 | 0.04 | 62 | 1013.4 |
| 20260508194833 | 67 | 240 | 2.6 | 2.6 | 0.00 | 0.04 | 0.04 | 61 | 1012.9 |
| 20260508194330 | 66 | 44 | 0.0 | 0.9 | 0.00 | 0.04 | 0.04 | 62 | 1013.3 |
| 20260508193827 | 66 | 154 | 0.9 | 1.7 | 0.00 | 0.04 | 0.04 | 59 | 1013.3 |
| 20260508193324 | 66 | 139 | 0.9 | 0.9 | 0.00 | 0.04 | 0.04 | 59 | 1012.8 |
| 20260508192820 | 67 | 284 | 0.9 | 1.7 | 0.00 | 0.04 | 0.04 | 55 | 1012.9 |
| 20260508192317 | 69 | 217 | 5.2 | 7.0 | 0.00 | 0.04 | 0.04 | 52 | 1012.8 |
| 20260508191814 | 69 | 174 | 1.7 | 1.7 | 0.00 | 0.04 | 0.04 | 53 | 1012.8 |
| 20260508191311 | 0 | 143 | 1.7 | 1.7 | 0.00 | 0.04 | 0.04 | 1012.9 | |
| 20260508190804 | 0 | 220 | 1.7 | 1.7 | 0.00 | 0.04 | 0.04 | 1013.0 | |
| 20260508190259 | 0 | 119 | 0.9 | 0.9 | 0.00 | 0.04 | 0.04 | 1012.9 | |
| 20260508185756 | 70 | 128 | 1.7 | 1.7 | 0.00 | 0.04 | 0.04 | 54 | 1012.8 |
| 20260508185254 | 69 | 68 | 0.9 | 0.9 | 0.00 | 0.04 | 0.04 | 53 | 1012.9 |
| 20260508184751 | 69 | 102 | 0.9 | 0.9 | 0.00 | 0.04 | 0.04 | 54 | 1012.9 |
| 20260508184248 | 69 | 241 | 0.9 | 1.7 | 0.00 | 0.04 | 0.04 | 51 | 1012.8 |
| 20260508183745 | 70 | 257 | 1.7 | 1.7 | 0.00 | 0.04 | 0.04 | 53 | 1012.9 |
| 20260508183241 | 70 | 149 | 1.7 | 1.7 | 0.00 | 0.04 | 0.04 | 55 | 1012.9 |
| 20260508182737 | 69 | 124 | 0.9 | 1.7 | 0.00 | 0.04 | 0.04 | 52 | 1012.9 |
| 20260508182234 | 69 | 267 | 1.7 | 1.7 | 0.00 | 0.04 | 0.04 | 54 | 1013.0 |
| 20260508181730 | 70 | 232 | 4.3 | 5.2 | 0.00 | 0.04 | 0.04 | 52 | 1013.0 |
| 20260508181227 | 71 | 126 | 0.9 | 0.9 | 0.00 | 0.04 | 0.04 | 53 | 1013.1 |
| 20260508180723 | 70 | 82 | 0.0 | 0.9 | 0.00 | 0.04 | 0.04 | 53 | 1013.0 |
| 20260508180220 | 69 | 110 | 0.9 | 1.7 | 0.00 | 0.04 | 0.04 | 53 | 1013.2 |
| 20260508175717 | 70 | 316 | 0.9 | 1.7 | 0.00 | 0.04 | 0.04 | 52 | 1013.1 |
| 20260508175214 | 71 | 318 | 0.9 | 1.7 | 0.00 | 0.04 | 0.04 | 53 | 1013.2 |
| 20260508174712 | 70 | 168 | 1.7 | 1.7 | 0.00 | 0.04 | 0.04 | 55 | 1013.2 |
| 20260508174209 | 71 | 35 | 0.0 | 0.9 | 0.00 | 0.04 | 0.04 | 54 | 1013.1 |
| 20260508173705 | 71 | 104 | 0.0 | 0.9 | 0.00 | 0.04 | 0.04 | 54 | 1013.0 |
| 20260508173201 | 71 | 93 | 1.7 | 1.7 | 0.00 | 0.04 | 0.04 | 53 | 1013.1 |
| 20260508172658 | 73 | 137 | 1.7 | 2.6 | 0.00 | 0.04 | 0.04 | 52 | 1013.3 |
| 20260508172155 | 70 | 160 | 1.7 | 4.3 | 0.00 | 0.04 | 0.04 | 54 | 1013.4 |
| 20260508171651 | 70 | 108 | 1.7 | 1.7 | 0.00 | 0.04 | 0.04 | 54 | 1013.4 |
| 20260508171147 | 71 | 85 | 0.9 | 0.9 | 0.00 | 0.04 | 0.04 | 51 | 1013.6 |
| 20260508170645 | 70 | 98 | 0.0 | 0.9 | 0.00 | 0.04 | 0.04 | 49 | 1013.7 |
| 20260508170142 | 71 | 108 | 0.0 | 0.9 | 0.00 | 0.04 | 0.04 | 46 | 1013.6 |
| 20260508165634 | 70 | 147 | 0.9 | 0.9 | 0.00 | 0.04 | 0.04 | 44 | 1013.6 |
| 20260508165131 | 70 | 218 | 2.6 | 4.3 | 0.00 | 0.04 | 0.04 | 48 | 1013.7 |
| 20260508164627 | 71 | 66 | 0.9 | 1.7 | 0.00 | 0.04 | 0.04 | 50 | 1013.6 |
| 20260508164124 | 71 | 107 | 0.9 | 0.9 | 0.00 | 0.04 | 0.04 | 53 | 1013.7 |
| 20260508163621 | 70 | 123 | 1.7 | 1.7 | 0.00 | 0.04 | 0.04 | 52 | 1013.8 |
| 20260508163118 | 69 | 126 | 0.9 | 1.7 | 0.00 | 0.04 | 0.04 | 51 | 1013.8 |
| 20260508162614 | 69 | 97 | 0.9 | 1.7 | 0.00 | 0.04 | 0.04 | 52 | 1014.1 |
| 20260508162112 | 71 | 69 | 0.0 | 0.9 | 0.00 | 0.04 | 0.04 | 49 | 1014.1 |
| 20260508161608 | 71 | 104 | 1.7 | 2.6 | 0.00 | 0.04 | 0.04 | 50 | 1014.2 |
| 20260508161106 | 69 | 70 | 0.9 | 0.9 | 0.00 | 0.04 | 0.04 | 52 | 1014.2 |
| 20260508160605 | 70 | 144 | 2.6 | 2.6 | 0.00 | 0.04 | 0.04 | 51 | 1014.3 |
| 20260508155558 | 67 | 127 | 0.9 | 1.7 | 0.00 | 0.04 | 0.04 | 55 | 1014.3 |
| 20260508155055 | 68 | 115 | 0.9 | 1.7 | 0.00 | 0.04 | 0.04 | 56 | 1014.6 |
| 20260508154552 | 68 | 96 | 0.9 | 0.9 | 0.00 | 0.04 | 0.04 | 56 | 1014.5 |
| 20260508154049 | 68 | 109 | 0.9 | 1.7 | 0.00 | 0.04 | 0.04 | 55 | 1014.9 |
| 20260508153546 | 68 | 170 | 1.7 | 2.6 | 0.00 | 0.04 | 0.04 | 51 | 1014.8 |
| 20260508153042 | 67 | 89 | 0.9 | 1.7 | 0.00 | 0.04 | 0.04 | 53 | 1014.9 |
| 20260508152540 | 68 | 51 | 0.9 | 1.7 | 0.00 | 0.04 | 0.04 | 53 | 1015.1 |
| 20260508152034 | 68 | 109 | 0.9 | 1.7 | 0.00 | 0.04 | 0.04 | 53 | 1015.0 |
| 20260508151532 | 67 | 134 | 0.9 | 0.9 | 0.00 | 0.04 | 0.04 | 61 | 1015.0 |
| 20260508151028 | 67 | 133 | 1.7 | 1.7 | 0.00 | 0.04 | 0.04 | 59 | 1015.2 |
| 20260508150526 | 67 | 110 | 0.9 | 0.9 | 0.00 | 0.04 | 0.04 | 60 | 1015.1 |
| 20260508150021 | 68 | 115 | 0.0 | 0.9 | 0.00 | 0.04 | 0.04 | 58 | 1015.3 |
| 20260508145518 | 68 | 59 | 0.9 | 0.9 | 0.00 | 0.04 | 0.04 | 57 | 1015.2 |
| 20260508145014 | 67 | 172 | 2.6 | 4.3 | 0.00 | 0.04 | 0.04 | 56 | 1015.3 |
| 20260508144512 | 68 | 75 | 0.9 | 0.9 | 0.00 | 0.04 | 0.04 | 59 | 1015.7 |
| 20260508144009 | 67 | 70 | 0.0 | 0.9 | 0.00 | 0.04 | 0.04 | 63 | 1015.6 |
| 20260508143507 | 67 | 301 | 1.7 | 2.6 | 0.00 | 0.04 | 0.04 | 62 | 1015.3 |
| 20260508143003 | 67 | 127 | 0.9 | 0.9 | 0.00 | 0.04 | 0.04 | 61 | 1015.4 |
| 20260508142500 | 66 | 160 | 0.9 | 1.7 | 0.00 | 0.04 | 0.04 | 60 | 1015.6 |
| 20260508141956 | 66 | 131 | 1.7 | 2.6 | 0.00 | 0.04 | 0.04 | 61 | 1015.4 |
| 20260508141453 | 62 | 90 | 0.9 | 1.7 | 0.00 | 0.04 | 0.04 | 60 | 1015.3 |
| 20260508140951 | 0 | 124 | 0.9 | 0.9 | 0.00 | 0.04 | 0.04 | 1015.2 | |
| 20260508140448 | 0 | 102 | 0.9 | 1.7 | 0.00 | 0.04 | 0.04 | 1015.4 | |
| 20260508135943 | 0 | 117 | 0.9 | 1.7 | 0.00 | 0.04 | 0.04 | 1015.3 |